sensor_id;sensor_type;location;lat;lon;timestamp;P1;durP1;ratioP1;P2;durP2;ratioP2
11548;SDS011;61444;59.472;18.306;2024-02-14T00:01:14;8.63;;;4.23;;
11548;SDS011;61444;59.472;18.306;2024-02-14T00:03:25;6.13;;;3.97;;
11548;SDS011;61444;59.472;18.306;2024-02-14T00:05:35;6.90;;;3.57;;
11548;SDS011;61444;59.472;18.306;2024-02-14T00:07:43;7.07;;;4.00;;
11548;SDS011;61444;59.472;18.306;2024-02-14T00:09:52;10.00;;;3.97;;
11548;SDS011;61444;59.472;18.306;2024-02-14T00:12:03;8.17;;;4.43;;
11548;SDS011;61444;59.472;18.306;2024-02-14T00:14:12;8.63;;;4.60;;
11548;SDS011;61444;59.472;18.306;2024-02-14T00:16:20;7.73;;;4.13;;
11548;SDS011;61444;59.472;18.306;2024-02-14T00:18:29;10.47;;;4.67;;
11548;SDS011;61444;59.472;18.306;2024-02-14T00:20:38;7.97;;;3.43;;
11548;SDS011;61444;59.472;18.306;2024-02-14T00:22:47;7.37;;;3.60;;
11548;SDS011;61444;59.472;18.306;2024-02-14T00:24:55;6.37;;;3.43;;
11548;SDS011;61444;59.472;18.306;2024-02-14T00:27:05;8.70;;;4.03;;
11548;SDS011;61444;59.472;18.306;2024-02-14T00:29:14;8.37;;;4.20;;
11548;SDS011;61444;59.472;18.306;2024-02-14T00:31:23;5.87;;;2.47;;
11548;SDS011;61444;59.472;18.306;2024-02-14T00:33:31;9.10;;;4.40;;
11548;SDS011;61444;59.472;18.306;2024-02-14T00:35:41;5.63;;;3.07;;
11548;SDS011;61444;59.472;18.306;2024-02-14T00:37:51;9.17;;;3.30;;
11548;SDS011;61444;59.472;18.306;2024-02-14T00:40:00;5.27;;;3.13;;
11548;SDS011;61444;59.472;18.306;2024-02-14T00:42:10;10.40;;;3.70;;
11548;SDS011;61444;59.472;18.306;2024-02-14T00:44:19;6.33;;;3.83;;
11548;SDS011;61444;59.472;18.306;2024-02-14T00:46:28;6.67;;;3.90;;
11548;SDS011;61444;59.472;18.306;2024-02-14T00:48:37;8.17;;;4.10;;
11548;SDS011;61444;59.472;18.306;2024-02-14T00:50:46;4.93;;;3.07;;
11548;SDS011;61444;59.472;18.306;2024-02-14T00:52:55;7.93;;;4.07;;
11548;SDS011;61444;59.472;18.306;2024-02-14T00:55:04;7.53;;;3.60;;
11548;SDS011;61444;59.472;18.306;2024-02-14T00:57:14;6.80;;;3.70;;
11548;SDS011;61444;59.472;18.306;2024-02-14T00:59:24;7.47;;;4.17;;
11548;SDS011;61444;59.472;18.306;2024-02-14T01:01:33;8.03;;;3.57;;
11548;SDS011;61444;59.472;18.306;2024-02-14T01:03:41;7.07;;;4.03;;
11548;SDS011;61444;59.472;18.306;2024-02-14T01:05:50;7.20;;;3.57;;
11548;SDS011;61444;59.472;18.306;2024-02-14T01:07:59;10.63;;;4.60;;
11548;SDS011;61444;59.472;18.306;2024-02-14T01:10:08;9.23;;;4.10;;
11548;SDS011;61444;59.472;18.306;2024-02-14T01:12:18;11.77;;;4.33;;
11548;SDS011;61444;59.472;18.306;2024-02-14T01:14:27;8.17;;;3.90;;
11548;SDS011;61444;59.472;18.306;2024-02-14T01:16:41;7.30;;;4.03;;
11548;SDS011;61444;59.472;18.306;2024-02-14T01:18:50;7.60;;;4.07;;
11548;SDS011;61444;59.472;18.306;2024-02-14T01:20:59;7.07;;;3.63;;
11548;SDS011;61444;59.472;18.306;2024-02-14T01:23:08;6.27;;;3.87;;
11548;SDS011;61444;59.472;18.306;2024-02-14T01:25:17;6.10;;;3.80;;
11548;SDS011;61444;59.472;18.306;2024-02-14T01:27:27;8.47;;;4.27;;
11548;SDS011;61444;59.472;18.306;2024-02-14T01:29:36;6.57;;;4.10;;
11548;SDS011;61444;59.472;18.306;2024-02-14T01:31:45;8.60;;;4.60;;
11548;SDS011;61444;59.472;18.306;2024-02-14T01:33:53;9.93;;;4.70;;
11548;SDS011;61444;59.472;18.306;2024-02-14T01:36:03;10.43;;;4.83;;
11548;SDS011;61444;59.472;18.306;2024-02-14T01:38:11;8.20;;;4.60;;
11548;SDS011;61444;59.472;18.306;2024-02-14T01:40:20;8.80;;;4.87;;
11548;SDS011;61444;59.472;18.306;2024-02-14T01:42:30;8.73;;;4.43;;
11548;SDS011;61444;59.472;18.306;2024-02-14T01:44:39;9.57;;;4.73;;
11548;SDS011;61444;59.472;18.306;2024-02-14T01:46:49;8.43;;;4.57;;
11548;SDS011;61444;59.472;18.306;2024-02-14T01:48:59;8.00;;;4.03;;
11548;SDS011;61444;59.472;18.306;2024-02-14T01:51:11;7.53;;;3.77;;
11548;SDS011;61444;59.472;18.306;2024-02-14T01:53:19;8.70;;;4.33;;
11548;SDS011;61444;59.472;18.306;2024-02-14T01:55:28;8.90;;;4.67;;
11548;SDS011;61444;59.472;18.306;2024-02-14T01:57:39;9.20;;;4.43;;
11548;SDS011;61444;59.472;18.306;2024-02-14T01:59:48;7.90;;;4.60;;
11548;SDS011;61444;59.472;18.306;2024-02-14T02:01:58;9.83;;;4.63;;
11548;SDS011;61444;59.472;18.306;2024-02-14T02:04:08;11.50;;;4.80;;
11548;SDS011;61444;59.472;18.306;2024-02-14T02:06:17;8.97;;;4.80;;
11548;SDS011;61444;59.472;18.306;2024-02-14T02:08:26;7.60;;;4.43;;
11548;SDS011;61444;59.472;18.306;2024-02-14T02:10:35;8.23;;;4.47;;
11548;SDS011;61444;59.472;18.306;2024-02-14T02:12:46;9.03;;;4.73;;
11548;SDS011;61444;59.472;18.306;2024-02-14T02:14:55;9.87;;;4.90;;
11548;SDS011;61444;59.472;18.306;2024-02-14T02:17:03;4.33;;;2.57;;
11548;SDS011;61444;59.472;18.306;2024-02-14T02:19:14;9.53;;;3.40;;
11548;SDS011;61444;59.472;18.306;2024-02-14T02:21:23;7.90;;;3.77;;
11548;SDS011;61444;59.472;18.306;2024-02-14T02:23:34;4.97;;;2.93;;
11548;SDS011;61444;59.472;18.306;2024-02-14T02:25:43;7.07;;;3.40;;
11548;SDS011;61444;59.472;18.306;2024-02-14T02:27:50;8.67;;;4.10;;
11548;SDS011;61444;59.472;18.306;2024-02-14T02:30:00;7.30;;;3.60;;
11548;SDS011;61444;59.472;18.306;2024-02-14T02:32:11;7.43;;;3.90;;
11548;SDS011;61444;59.472;18.306;2024-02-14T02:34:20;8.20;;;4.23;;
11548;SDS011;61444;59.472;18.306;2024-02-14T02:36:29;8.63;;;3.87;;
11548;SDS011;61444;59.472;18.306;2024-02-14T02:38:39;7.97;;;3.97;;
11548;SDS011;61444;59.472;18.306;2024-02-14T02:40:48;12.37;;;4.07;;
11548;SDS011;61444;59.472;18.306;2024-02-14T02:42:57;8.07;;;4.27;;
11548;SDS011;61444;59.472;18.306;2024-02-14T02:45:05;9.90;;;4.77;;
11548;SDS011;61444;59.472;18.306;2024-02-14T02:47:15;7.97;;;4.30;;
11548;SDS011;61444;59.472;18.306;2024-02-14T02:49:23;7.30;;;4.33;;
11548;SDS011;61444;59.472;18.306;2024-02-14T02:51:32;8.03;;;4.10;;
11548;SDS011;61444;59.472;18.306;2024-02-14T02:53:42;7.43;;;3.87;;
11548;SDS011;61444;59.472;18.306;2024-02-14T02:55:50;9.80;;;4.83;;
11548;SDS011;61444;59.472;18.306;2024-02-14T02:58:00;8.23;;;5.07;;
11548;SDS011;61444;59.472;18.306;2024-02-14T03:00:09;11.67;;;4.93;;
11548;SDS011;61444;59.472;18.306;2024-02-14T03:02:19;8.70;;;4.27;;
11548;SDS011;61444;59.472;18.306;2024-02-14T03:04:26;7.23;;;4.70;;
11548;SDS011;61444;59.472;18.306;2024-02-14T03:06:54;7.87;;;4.80;;
11548;SDS011;61444;59.472;18.306;2024-02-14T03:09:04;9.83;;;5.23;;
11548;SDS011;61444;59.472;18.306;2024-02-14T03:11:15;8.30;;;4.40;;
11548;SDS011;61444;59.472;18.306;2024-02-14T03:13:23;11.77;;;5.40;;
11548;SDS011;61444;59.472;18.306;2024-02-14T03:15:32;9.30;;;4.70;;
11548;SDS011;61444;59.472;18.306;2024-02-14T03:17:42;9.37;;;4.40;;
11548;SDS011;61444;59.472;18.306;2024-02-14T03:19:50;8.87;;;4.17;;
11548;SDS011;61444;59.472;18.306;2024-02-14T03:21:58;7.23;;;4.07;;
11548;SDS011;61444;59.472;18.306;2024-02-14T03:24:08;9.10;;;4.87;;
11548;SDS011;61444;59.472;18.306;2024-02-14T03:26:17;6.80;;;4.27;;
11548;SDS011;61444;59.472;18.306;2024-02-14T03:28:26;9.80;;;4.60;;
11548;SDS011;61444;59.472;18.306;2024-02-14T03:30:34;11.37;;;4.90;;
11548;SDS011;61444;59.472;18.306;2024-02-14T03:32:43;9.73;;;4.87;;
11548;SDS011;61444;59.472;18.306;2024-02-14T03:34:52;12.07;;;4.60;;
11548;SDS011;61444;59.472;18.306;2024-02-14T03:37:01;9.50;;;4.80;;
11548;SDS011;61444;59.472;18.306;2024-02-14T03:39:12;10.50;;;5.07;;
11548;SDS011;61444;59.472;18.306;2024-02-14T03:41:20;10.80;;;4.60;;
11548;SDS011;61444;59.472;18.306;2024-02-14T03:43:29;8.53;;;4.63;;
11548;SDS011;61444;59.472;18.306;2024-02-14T03:45:38;10.50;;;5.23;;
11548;SDS011;61444;59.472;18.306;2024-02-14T03:47:47;10.30;;;4.73;;
11548;SDS011;61444;59.472;18.306;2024-02-14T03:49:55;10.30;;;5.07;;
11548;SDS011;61444;59.472;18.306;2024-02-14T03:52:04;8.23;;;5.17;;
11548;SDS011;61444;59.472;18.306;2024-02-14T03:54:17;9.83;;;5.50;;
11548;SDS011;61444;59.472;18.306;2024-02-14T03:56:27;10.57;;;4.93;;
11548;SDS011;61444;59.472;18.306;2024-02-14T03:58:36;8.37;;;4.83;;
11548;SDS011;61444;59.472;18.306;2024-02-14T04:00:45;8.27;;;4.50;;
11548;SDS011;61444;59.472;18.306;2024-02-14T04:02:55;10.97;;;5.47;;
11548;SDS011;61444;59.472;18.306;2024-02-14T04:05:06;11.00;;;5.40;;
11548;SDS011;61444;59.472;18.306;2024-02-14T04:07:15;9.73;;;4.80;;
11548;SDS011;61444;59.472;18.306;2024-02-14T04:09:25;12.77;;;4.80;;
11548;SDS011;61444;59.472;18.306;2024-02-14T04:11:34;11.43;;;5.30;;
11548;SDS011;61444;59.472;18.306;2024-02-14T04:13:42;10.97;;;5.00;;
11548;SDS011;61444;59.472;18.306;2024-02-14T04:15:51;8.77;;;5.00;;
11548;SDS011;61444;59.472;18.306;2024-02-14T04:18:00;8.67;;;4.90;;
11548;SDS011;61444;59.472;18.306;2024-02-14T04:20:13;9.13;;;4.73;;
11548;SDS011;61444;59.472;18.306;2024-02-14T04:22:21;15.97;;;6.00;;
11548;SDS011;61444;59.472;18.306;2024-02-14T04:24:32;13.80;;;6.30;;
11548;SDS011;61444;59.472;18.306;2024-02-14T04:26:41;11.10;;;5.93;;
11548;SDS011;61444;59.472;18.306;2024-02-14T04:28:50;10.50;;;5.70;;
11548;SDS011;61444;59.472;18.306;2024-02-14T04:30:58;10.77;;;5.60;;
11548;SDS011;61444;59.472;18.306;2024-02-14T04:33:07;12.83;;;6.03;;
11548;SDS011;61444;59.472;18.306;2024-02-14T04:35:20;10.03;;;5.27;;
11548;SDS011;61444;59.472;18.306;2024-02-14T04:37:28;12.47;;;5.80;;
11548;SDS011;61444;59.472;18.306;2024-02-14T04:39:38;12.53;;;6.07;;
11548;SDS011;61444;59.472;18.306;2024-02-14T04:41:47;10.33;;;5.67;;
11548;SDS011;61444;59.472;18.306;2024-02-14T04:44:07;9.77;;;5.43;;
11548;SDS011;61444;59.472;18.306;2024-02-14T04:46:15;11.93;;;5.80;;
11548;SDS011;61444;59.472;18.306;2024-02-14T04:48:24;12.80;;;6.10;;
11548;SDS011;61444;59.472;18.306;2024-02-14T04:50:33;8.83;;;4.73;;
11548;SDS011;61444;59.472;18.306;2024-02-14T04:52:42;11.47;;;5.63;;
11548;SDS011;61444;59.472;18.306;2024-02-14T04:54:52;9.67;;;5.10;;
11548;SDS011;61444;59.472;18.306;2024-02-14T04:57:00;14.20;;;6.03;;
11548;SDS011;61444;59.472;18.306;2024-02-14T04:59:09;12.93;;;6.10;;
11548;SDS011;61444;59.472;18.306;2024-02-14T05:01:17;13.17;;;5.63;;
11548;SDS011;61444;59.472;18.306;2024-02-14T05:03:26;11.93;;;5.77;;
11548;SDS011;61444;59.472;18.306;2024-02-14T05:05:35;12.67;;;6.27;;
11548;SDS011;61444;59.472;18.306;2024-02-14T05:07:44;14.17;;;5.90;;
11548;SDS011;61444;59.472;18.306;2024-02-14T05:09:55;12.20;;;6.27;;
11548;SDS011;61444;59.472;18.306;2024-02-14T05:12:03;11.93;;;5.40;;
11548;SDS011;61444;59.472;18.306;2024-02-14T05:14:13;12.93;;;5.57;;
11548;SDS011;61444;59.472;18.306;2024-02-14T05:16:22;10.83;;;5.47;;
11548;SDS011;61444;59.472;18.306;2024-02-14T05:18:31;12.20;;;6.10;;
11548;SDS011;61444;59.472;18.306;2024-02-14T05:20:40;12.27;;;6.03;;
11548;SDS011;61444;59.472;18.306;2024-02-14T05:22:49;9.77;;;5.17;;
11548;SDS011;61444;59.472;18.306;2024-02-14T05:25:00;12.57;;;6.07;;
11548;SDS011;61444;59.472;18.306;2024-02-14T05:27:09;11.23;;;5.27;;
11548;SDS011;61444;59.472;18.306;2024-02-14T05:29:18;11.80;;;6.10;;
11548;SDS011;61444;59.472;18.306;2024-02-14T05:31:29;12.37;;;5.90;;
11548;SDS011;61444;59.472;18.306;2024-02-14T05:33:50;12.10;;;5.50;;
11548;SDS011;61444;59.472;18.306;2024-02-14T05:36:00;10.53;;;5.43;;
11548;SDS011;61444;59.472;18.306;2024-02-14T05:38:09;13.37;;;7.23;;
11548;SDS011;61444;59.472;18.306;2024-02-14T05:40:20;11.80;;;6.10;;
11548;SDS011;61444;59.472;18.306;2024-02-14T05:42:28;12.80;;;5.97;;
11548;SDS011;61444;59.472;18.306;2024-02-14T05:44:37;11.93;;;6.77;;
11548;SDS011;61444;59.472;18.306;2024-02-14T05:46:46;15.23;;;6.57;;
11548;SDS011;61444;59.472;18.306;2024-02-14T05:48:58;12.80;;;6.40;;
11548;SDS011;61444;59.472;18.306;2024-02-14T05:51:07;13.10;;;6.57;;
11548;SDS011;61444;59.472;18.306;2024-02-14T05:53:16;13.77;;;6.60;;
11548;SDS011;61444;59.472;18.306;2024-02-14T05:55:28;14.23;;;6.90;;
11548;SDS011;61444;59.472;18.306;2024-02-14T05:57:37;15.67;;;7.93;;
11548;SDS011;61444;59.472;18.306;2024-02-14T05:59:46;16.77;;;7.93;;
11548;SDS011;61444;59.472;18.306;2024-02-14T06:01:53;19.23;;;7.97;;
11548;SDS011;61444;59.472;18.306;2024-02-14T06:04:02;16.43;;;7.43;;
11548;SDS011;61444;59.472;18.306;2024-02-14T06:06:12;12.80;;;7.17;;
11548;SDS011;61444;59.472;18.306;2024-02-14T06:08:21;14.77;;;7.30;;
11548;SDS011;61444;59.472;18.306;2024-02-14T06:10:32;13.30;;;6.53;;
11548;SDS011;61444;59.472;18.306;2024-02-14T06:12:42;14.57;;;8.07;;
11548;SDS011;61444;59.472;18.306;2024-02-14T06:14:51;14.90;;;7.47;;
11548;SDS011;61444;59.472;18.306;2024-02-14T06:16:59;14.40;;;7.53;;
11548;SDS011;61444;59.472;18.306;2024-02-14T06:19:08;16.80;;;7.63;;
11548;SDS011;61444;59.472;18.306;2024-02-14T06:21:18;13.73;;;6.67;;
11548;SDS011;61444;59.472;18.306;2024-02-14T06:23:28;13.77;;;7.43;;
11548;SDS011;61444;59.472;18.306;2024-02-14T06:25:39;17.70;;;7.87;;
11548;SDS011;61444;59.472;18.306;2024-02-14T06:27:48;12.77;;;6.63;;
11548;SDS011;61444;59.472;18.306;2024-02-14T06:29:56;13.93;;;7.40;;
11548;SDS011;61444;59.472;18.306;2024-02-14T06:32:06;15.87;;;7.30;;
11548;SDS011;61444;59.472;18.306;2024-02-14T06:34:15;16.73;;;7.27;;
11548;SDS011;61444;59.472;18.306;2024-02-14T06:36:23;12.97;;;6.70;;
11548;SDS011;61444;59.472;18.306;2024-02-14T06:38:31;15.97;;;7.43;;
11548;SDS011;61444;59.472;18.306;2024-02-14T06:40:41;17.73;;;7.83;;
11548;SDS011;61444;59.472;18.306;2024-02-14T06:42:50;35.13;;;15.60;;
11548;SDS011;61444;59.472;18.306;2024-02-14T06:45:01;26.63;;;12.77;;
11548;SDS011;61444;59.472;18.306;2024-02-14T06:47:09;23.60;;;11.07;;
11548;SDS011;61444;59.472;18.306;2024-02-14T06:49:18;25.93;;;10.93;;
11548;SDS011;61444;59.472;18.306;2024-02-14T06:51:26;24.90;;;11.10;;
11548;SDS011;61444;59.472;18.306;2024-02-14T06:53:35;20.60;;;9.70;;
11548;SDS011;61444;59.472;18.306;2024-02-14T06:55:45;24.77;;;10.70;;
11548;SDS011;61444;59.472;18.306;2024-02-14T06:57:54;18.37;;;8.67;;
11548;SDS011;61444;59.472;18.306;2024-02-14T07:00:03;17.87;;;7.73;;
11548;SDS011;61444;59.472;18.306;2024-02-14T07:02:13;16.33;;;7.90;;
11548;SDS011;61444;59.472;18.306;2024-02-14T07:04:22;17.43;;;8.50;;
11548;SDS011;61444;59.472;18.306;2024-02-14T07:06:32;17.57;;;8.13;;
11548;SDS011;61444;59.472;18.306;2024-02-14T07:08:41;19.37;;;9.13;;
11548;SDS011;61444;59.472;18.306;2024-02-14T07:10:51;20.20;;;9.73;;
11548;SDS011;61444;59.472;18.306;2024-02-14T07:13:00;17.97;;;8.80;;
11548;SDS011;61444;59.472;18.306;2024-02-14T07:15:08;19.90;;;9.33;;
11548;SDS011;61444;59.472;18.306;2024-02-14T07:17:17;18.30;;;9.27;;
11548;SDS011;61444;59.472;18.306;2024-02-14T07:19:26;17.10;;;8.90;;
11548;SDS011;61444;59.472;18.306;2024-02-14T07:21:34;19.07;;;9.67;;
11548;SDS011;61444;59.472;18.306;2024-02-14T07:23:44;15.83;;;8.50;;
11548;SDS011;61444;59.472;18.306;2024-02-14T07:25:54;20.07;;;9.73;;
11548;SDS011;61444;59.472;18.306;2024-02-14T07:28:03;17.63;;;8.97;;
11548;SDS011;61444;59.472;18.306;2024-02-14T07:30:12;16.97;;;8.43;;
11548;SDS011;61444;59.472;18.306;2024-02-14T07:32:21;17.30;;;8.97;;
11548;SDS011;61444;59.472;18.306;2024-02-14T07:34:29;18.20;;;8.57;;
11548;SDS011;61444;59.472;18.306;2024-02-14T07:36:38;17.27;;;8.97;;
11548;SDS011;61444;59.472;18.306;2024-02-14T07:38:51;17.00;;;9.07;;
11548;SDS011;61444;59.472;18.306;2024-02-14T07:41:01;17.00;;;8.30;;
11548;SDS011;61444;59.472;18.306;2024-02-14T07:43:10;15.97;;;7.93;;
11548;SDS011;61444;59.472;18.306;2024-02-14T07:45:18;17.17;;;8.43;;
11548;SDS011;61444;59.472;18.306;2024-02-14T07:47:27;16.90;;;8.57;;
11548;SDS011;61444;59.472;18.306;2024-02-14T07:49:36;15.57;;;8.73;;
11548;SDS011;61444;59.472;18.306;2024-02-14T07:51:44;19.97;;;8.83;;
11548;SDS011;61444;59.472;18.306;2024-02-14T07:53:53;18.37;;;9.77;;
11548;SDS011;61444;59.472;18.306;2024-02-14T07:56:03;18.97;;;9.27;;
11548;SDS011;61444;59.472;18.306;2024-02-14T07:58:12;17.23;;;8.73;;
11548;SDS011;61444;59.472;18.306;2024-02-14T08:00:20;16.03;;;8.87;;
11548;SDS011;61444;59.472;18.306;2024-02-14T08:02:30;16.70;;;9.27;;
11548;SDS011;61444;59.472;18.306;2024-02-14T08:04:38;16.13;;;9.17;;
11548;SDS011;61444;59.472;18.306;2024-02-14T08:06:47;18.63;;;9.07;;
11548;SDS011;61444;59.472;18.306;2024-02-14T08:08:56;19.43;;;9.53;;
11548;SDS011;61444;59.472;18.306;2024-02-14T08:11:10;19.83;;;9.57;;
11548;SDS011;61444;59.472;18.306;2024-02-14T08:13:18;17.97;;;9.47;;
11548;SDS011;61444;59.472;18.306;2024-02-14T08:15:27;19.47;;;9.17;;
11548;SDS011;61444;59.472;18.306;2024-02-14T08:17:35;22.77;;;9.33;;
11548;SDS011;61444;59.472;18.306;2024-02-14T08:19:44;17.57;;;9.17;;
11548;SDS011;61444;59.472;18.306;2024-02-14T08:21:52;21.43;;;9.67;;
11548;SDS011;61444;59.472;18.306;2024-02-14T08:24:04;22.17;;;9.93;;
11548;SDS011;61444;59.472;18.306;2024-02-14T08:26:15;20.17;;;10.07;;
11548;SDS011;61444;59.472;18.306;2024-02-14T08:28:23;21.20;;;9.70;;
11548;SDS011;61444;59.472;18.306;2024-02-14T08:30:31;18.40;;;9.07;;
11548;SDS011;61444;59.472;18.306;2024-02-14T08:32:39;17.90;;;9.93;;
11548;SDS011;61444;59.472;18.306;2024-02-14T08:34:48;17.23;;;8.60;;
11548;SDS011;61444;59.472;18.306;2024-02-14T08:36:57;18.90;;;9.63;;
11548;SDS011;61444;59.472;18.306;2024-02-14T08:39:06;19.80;;;9.93;;
11548;SDS011;61444;59.472;18.306;2024-02-14T08:41:16;19.13;;;9.30;;
11548;SDS011;61444;59.472;18.306;2024-02-14T08:43:25;20.77;;;9.97;;
11548;SDS011;61444;59.472;18.306;2024-02-14T08:45:34;22.20;;;9.97;;
11548;SDS011;61444;59.472;18.306;2024-02-14T08:47:44;18.50;;;10.13;;
11548;SDS011;61444;59.472;18.306;2024-02-14T08:49:52;22.23;;;9.30;;
11548;SDS011;61444;59.472;18.306;2024-02-14T08:52:01;21.37;;;10.00;;
11548;SDS011;61444;59.472;18.306;2024-02-14T08:54:10;19.93;;;10.60;;
11548;SDS011;61444;59.472;18.306;2024-02-14T08:56:21;22.70;;;9.73;;
11548;SDS011;61444;59.472;18.306;2024-02-14T08:58:30;26.70;;;11.20;;
11548;SDS011;61444;59.472;18.306;2024-02-14T09:00:38;22.77;;;9.90;;
11548;SDS011;61444;59.472;18.306;2024-02-14T09:02:47;28.80;;;11.03;;
11548;SDS011;61444;59.472;18.306;2024-02-14T09:04:56;25.33;;;10.67;;
11548;SDS011;61444;59.472;18.306;2024-02-14T09:07:04;25.17;;;10.97;;
11548;SDS011;61444;59.472;18.306;2024-02-14T09:09:13;23.97;;;10.53;;
11548;SDS011;61444;59.472;18.306;2024-02-14T09:11:23;28.97;;;10.77;;
11548;SDS011;61444;59.472;18.306;2024-02-14T09:13:32;27.47;;;11.20;;
11548;SDS011;61444;59.472;18.306;2024-02-14T09:15:41;28.63;;;11.57;;
11548;SDS011;61444;59.472;18.306;2024-02-14T09:17:49;28.27;;;10.43;;
11548;SDS011;61444;59.472;18.306;2024-02-14T09:19:58;31.20;;;11.13;;
11548;SDS011;61444;59.472;18.306;2024-02-14T09:22:08;28.47;;;11.27;;
11548;SDS011;61444;59.472;18.306;2024-02-14T09:24:17;28.80;;;11.57;;
11548;SDS011;61444;59.472;18.306;2024-02-14T09:26:27;37.40;;;11.73;;
11548;SDS011;61444;59.472;18.306;2024-02-14T09:28:39;27.53;;;10.73;;
11548;SDS011;61444;59.472;18.306;2024-02-14T09:30:48;32.43;;;11.73;;
11548;SDS011;61444;59.472;18.306;2024-02-14T09:32:58;27.87;;;11.50;;
11548;SDS011;61444;59.472;18.306;2024-02-14T09:35:07;29.03;;;11.37;;
11548;SDS011;61444;59.472;18.306;2024-02-14T09:37:16;31.17;;;10.90;;
11548;SDS011;61444;59.472;18.306;2024-02-14T09:39:25;30.90;;;12.23;;
11548;SDS011;61444;59.472;18.306;2024-02-14T09:41:37;35.93;;;13.43;;
11548;SDS011;61444;59.472;18.306;2024-02-14T09:43:50;33.03;;;13.10;;
11548;SDS011;61444;59.472;18.306;2024-02-14T09:45:59;29.30;;;12.00;;
11548;SDS011;61444;59.472;18.306;2024-02-14T09:48:09;31.83;;;13.00;;
11548;SDS011;61444;59.472;18.306;2024-02-14T09:50:19;34.60;;;12.70;;
11548;SDS011;61444;59.472;18.306;2024-02-14T09:52:27;33.63;;;12.70;;
11548;SDS011;61444;59.472;18.306;2024-02-14T09:54:36;38.10;;;13.47;;
11548;SDS011;61444;59.472;18.306;2024-02-14T09:56:49;28.67;;;12.53;;
11548;SDS011;61444;59.472;18.306;2024-02-14T09:59:00;23.23;;;9.83;;
11548;SDS011;61444;59.472;18.306;2024-02-14T10:01:10;27.57;;;10.53;;
11548;SDS011;61444;59.472;18.306;2024-02-14T10:03:19;24.40;;;10.03;;
11548;SDS011;61444;59.472;18.306;2024-02-14T10:05:27;22.27;;;9.40;;
11548;SDS011;61444;59.472;18.306;2024-02-14T10:07:39;24.57;;;9.90;;
11548;SDS011;61444;59.472;18.306;2024-02-14T10:09:48;20.33;;;8.13;;
11548;SDS011;61444;59.472;18.306;2024-02-14T10:11:59;26.93;;;9.40;;
11548;SDS011;61444;59.472;18.306;2024-02-14T10:14:08;22.17;;;8.63;;
11548;SDS011;61444;59.472;18.306;2024-02-14T10:16:18;22.17;;;8.17;;
11548;SDS011;61444;59.472;18.306;2024-02-14T10:18:31;21.93;;;8.70;;
11548;SDS011;61444;59.472;18.306;2024-02-14T10:20:40;23.47;;;9.40;;
11548;SDS011;61444;59.472;18.306;2024-02-14T10:22:51;22.00;;;8.43;;
11548;SDS011;61444;59.472;18.306;2024-02-14T10:25:00;21.40;;;8.20;;
11548;SDS011;61444;59.472;18.306;2024-02-14T10:27:11;17.80;;;8.33;;
11548;SDS011;61444;59.472;18.306;2024-02-14T10:29:21;22.13;;;8.33;;
11548;SDS011;61444;59.472;18.306;2024-02-14T10:31:30;22.00;;;9.23;;
11548;SDS011;61444;59.472;18.306;2024-02-14T10:33:40;19.23;;;7.97;;
11548;SDS011;61444;59.472;18.306;2024-02-14T10:35:50;17.40;;;8.33;;
11548;SDS011;61444;59.472;18.306;2024-02-14T10:38:04;22.13;;;7.93;;
11548;SDS011;61444;59.472;18.306;2024-02-14T10:40:16;18.47;;;7.90;;
11548;SDS011;61444;59.472;18.306;2024-02-14T10:42:26;16.53;;;7.30;;
11548;SDS011;61444;59.472;18.306;2024-02-14T10:44:35;18.50;;;7.00;;
11548;SDS011;61444;59.472;18.306;2024-02-14T10:46:44;17.27;;;7.23;;
11548;SDS011;61444;59.472;18.306;2024-02-14T10:48:57;16.83;;;7.20;;
11548;SDS011;61444;59.472;18.306;2024-02-14T10:51:08;18.90;;;7.20;;
11548;SDS011;61444;59.472;18.306;2024-02-14T10:53:17;16.40;;;6.87;;
11548;SDS011;61444;59.472;18.306;2024-02-14T10:55:28;15.27;;;7.03;;
11548;SDS011;61444;59.472;18.306;2024-02-14T10:57:39;14.17;;;6.93;;
11548;SDS011;61444;59.472;18.306;2024-02-14T10:59:49;15.17;;;6.43;;
11548;SDS011;61444;59.472;18.306;2024-02-14T11:01:58;13.30;;;6.53;;
11548;SDS011;61444;59.472;18.306;2024-02-14T11:04:07;14.27;;;6.83;;
11548;SDS011;61444;59.472;18.306;2024-02-14T11:06:16;14.93;;;7.40;;
11548;SDS011;61444;59.472;18.306;2024-02-14T11:08:25;19.17;;;7.53;;
11548;SDS011;61444;59.472;18.306;2024-02-14T11:10:37;17.27;;;6.50;;
11548;SDS011;61444;59.472;18.306;2024-02-14T11:12:48;19.77;;;7.80;;
11548;SDS011;61444;59.472;18.306;2024-02-14T11:14:57;16.63;;;7.27;;
11548;SDS011;61444;59.472;18.306;2024-02-14T11:17:09;25.60;;;8.97;;
11548;SDS011;61444;59.472;18.306;2024-02-14T11:19:18;23.87;;;9.00;;
11548;SDS011;61444;59.472;18.306;2024-02-14T11:21:28;20.30;;;7.70;;
11548;SDS011;61444;59.472;18.306;2024-02-14T11:23:37;20.47;;;8.20;;
11548;SDS011;61444;59.472;18.306;2024-02-14T11:25:46;21.03;;;8.83;;
11548;SDS011;61444;59.472;18.306;2024-02-14T11:27:57;18.60;;;8.93;;
11548;SDS011;61444;59.472;18.306;2024-02-14T11:30:05;20.30;;;8.00;;
11548;SDS011;61444;59.472;18.306;2024-02-14T11:32:14;20.27;;;8.63;;
11548;SDS011;61444;59.472;18.306;2024-02-14T11:34:25;26.40;;;10.70;;
11548;SDS011;61444;59.472;18.306;2024-02-14T11:36:35;24.10;;;10.57;;
11548;SDS011;61444;59.472;18.306;2024-02-14T11:38:43;30.30;;;11.23;;
11548;SDS011;61444;59.472;18.306;2024-02-14T11:40:54;30.77;;;11.20;;
11548;SDS011;61444;59.472;18.306;2024-02-14T11:43:05;31.37;;;11.33;;
11548;SDS011;61444;59.472;18.306;2024-02-14T11:45:18;27.13;;;10.90;;
11548;SDS011;61444;59.472;18.306;2024-02-14T11:47:27;30.53;;;11.97;;
11548;SDS011;61444;59.472;18.306;2024-02-14T11:49:36;27.73;;;10.50;;
11548;SDS011;61444;59.472;18.306;2024-02-14T11:51:46;31.20;;;11.00;;
11548;SDS011;61444;59.472;18.306;2024-02-14T11:53:55;29.07;;;11.27;;
11548;SDS011;61444;59.472;18.306;2024-02-14T11:56:11;26.10;;;9.47;;
11548;SDS011;61444;59.472;18.306;2024-02-14T11:58:22;28.70;;;11.27;;
11548;SDS011;61444;59.472;18.306;2024-02-14T12:00:32;31.17;;;11.60;;
11548;SDS011;61444;59.472;18.306;2024-02-14T12:02:42;30.17;;;11.33;;
11548;SDS011;61444;59.472;18.306;2024-02-14T12:04:51;34.93;;;12.50;;
11548;SDS011;61444;59.472;18.306;2024-02-14T12:07:02;28.73;;;10.93;;
11548;SDS011;61444;59.472;18.306;2024-02-14T12:09:10;36.07;;;12.27;;
11548;SDS011;61444;59.472;18.306;2024-02-14T12:11:20;30.80;;;11.57;;
11548;SDS011;61444;59.472;18.306;2024-02-14T12:13:30;30.97;;;11.57;;
11548;SDS011;61444;59.472;18.306;2024-02-14T12:15:39;29.90;;;11.13;;
11548;SDS011;61444;59.472;18.306;2024-02-14T12:17:47;34.80;;;11.77;;
11548;SDS011;61444;59.472;18.306;2024-02-14T12:20:04;30.83;;;11.63;;
11548;SDS011;61444;59.472;18.306;2024-02-14T12:22:13;33.37;;;11.33;;
11548;SDS011;61444;59.472;18.306;2024-02-14T12:24:24;32.37;;;11.90;;
11548;SDS011;61444;59.472;18.306;2024-02-14T12:26:36;35.23;;;11.70;;
11548;SDS011;61444;59.472;18.306;2024-02-14T12:28:47;26.50;;;11.50;;
11548;SDS011;61444;59.472;18.306;2024-02-14T12:30:56;31.80;;;11.87;;
11548;SDS011;61444;59.472;18.306;2024-02-14T12:33:05;24.97;;;10.13;;
11548;SDS011;61444;59.472;18.306;2024-02-14T12:35:16;25.77;;;10.03;;
11548;SDS011;61444;59.472;18.306;2024-02-14T12:37:25;32.67;;;10.67;;
11548;SDS011;61444;59.472;18.306;2024-02-14T12:39:34;26.73;;;11.07;;